createdAt,value
2022-09-05T00:00:19.766Z,83
2022-09-05T00:01:25.071Z,82.5
2022-09-05T00:02:30.357Z,82.5
2022-09-05T00:03:35.659Z,82.5
2022-09-05T00:04:40.942Z,82.5
2022-09-05T00:05:47.214Z,82.5
2022-09-05T00:06:53.499Z,82.5
2022-09-05T00:07:59.786Z,82.5
2022-09-05T00:09:06.036Z,82.5
2022-09-05T00:10:12.305Z,83
2022-09-05T00:11:18.580Z,83
2022-09-05T00:12:24.845Z,83
2022-09-05T00:13:31.129Z,83
2022-09-05T00:14:37.391Z,83
2022-09-05T00:15:43.662Z,83
2022-09-05T00:16:49.944Z,83.5
2022-09-05T00:17:56.207Z,83
2022-09-05T00:19:01.500Z,83.5
2022-09-05T00:20:07.772Z,83.5
2022-09-05T00:21:14.048Z,84
2022-09-05T00:22:20.311Z,83.5
2022-09-05T00:23:26.588Z,83
2022-09-05T00:24:32.876Z,83.5
2022-09-05T00:25:39.134Z,83
2022-09-05T00:26:44.439Z,83.5
2022-09-05T00:27:49.731Z,83.5
2022-09-05T00:28:55.022Z,83
2022-09-05T00:30:00.306Z,83.5
2022-09-05T00:31:06.580Z,83.5
2022-09-05T00:32:12.853Z,84
2022-09-05T00:33:19.164Z,84
2022-09-05T00:34:25.391Z,86
2022-09-05T00:35:31.695Z,85
2022-09-05T00:36:37.948Z,84.5
2022-09-05T00:37:44.217Z,84.5
2022-09-05T00:38:50.527Z,84.5
2022-09-05T00:39:56.760Z,84.5
2022-09-05T00:41:03.024Z,84.5
2022-09-05T00:42:09.297Z,84
2022-09-05T00:43:15.627Z,84
2022-09-05T00:44:20.859Z,84
2022-09-05T00:45:27.127Z,84
2022-09-05T00:46:33.437Z,85
2022-09-05T00:47:39.685Z,85
2022-09-05T00:48:45.961Z,84.5
2022-09-05T00:49:52.217Z,84.5
2022-09-05T00:50:58.494Z,85
2022-09-05T00:52:03.789Z,85
2022-09-05T00:53:09.105Z,85
2022-09-05T00:54:14.408Z,84.5
2022-09-05T00:55:19.668Z,84.5
2022-09-05T00:56:25.934Z,84.5
2022-09-05T00:57:32.214Z,84.5
2022-09-05T00:58:38.482Z,84.5
2022-09-05T00:59:44.756Z,84.5
2022-09-05T01:00:51.023Z,84.5
2022-09-05T01:01:57.298Z,84
2022-09-05T01:03:03.595Z,84.5
2022-09-05T01:04:09.845Z,84.5
2022-09-05T01:05:16.129Z,84
2022-09-05T01:06:22.392Z,84
2022-09-05T01:07:28.692Z,84
2022-09-05T01:08:34.932Z,84
2022-09-05T01:09:40.233Z,84
2022-09-05T01:10:46.491Z,84
2022-09-05T01:11:52.775Z,84
2022-09-05T01:12:59.034Z,84
2022-09-05T01:14:05.305Z,84
2022-09-05T01:15:11.620Z,84
2022-09-05T01:16:17.849Z,84
2022-09-05T01:17:23.236Z,84
2022-09-05T01:18:28.435Z,84
2022-09-05T01:19:33.731Z,84
2022-09-05T01:20:39.023Z,84
2022-09-05T01:21:45.298Z,84
2022-09-05T01:22:51.574Z,84
2022-09-05T01:23:57.838Z,84.5
2022-09-05T01:25:04.115Z,84
2022-09-05T01:26:10.388Z,84.5
2022-09-05T01:27:16.677Z,84.5
2022-09-05T01:28:22.936Z,84
2022-09-05T01:29:29.201Z,84
2022-09-05T01:30:35.483Z,84.5
2022-09-05T01:31:41.754Z,85
2022-09-05T01:32:48.073Z,85
2022-09-05T01:33:54.292Z,85
2022-09-05T01:34:59.585Z,85.5
2022-09-05T01:36:05.860Z,85.5
2022-09-05T01:37:12.171Z,85.5
2022-09-05T01:38:18.396Z,86
2022-09-05T01:39:24.670Z,90.5
2022-09-05T01:40:30.953Z,89.5
2022-09-05T01:41:37.230Z,90
2022-09-05T01:42:42.509Z,88
2022-09-05T01:43:47.793Z,86.5
2022-09-05T01:44:53.088Z,86.5
2022-09-05T01:45:58.379Z,86
2022-09-05T01:47:04.667Z,86
2022-09-05T01:48:10.975Z,85.5
2022-09-05T01:49:16.225Z,85
2022-09-05T01:50:22.512Z,85
2022-09-05T01:51:28.772Z,85
2022-09-05T01:52:35.095Z,84.5
2022-09-05T01:53:41.314Z,84.5
2022-09-05T01:54:47.601Z,84.5
2022-09-05T01:55:53.848Z,84.5
2022-09-05T01:57:00.119Z,84.5
2022-09-05T01:58:06.392Z,85
2022-09-05T01:59:12.673Z,84.5
2022-09-05T02:00:18.940Z,84.5
2022-09-05T02:01:25.213Z,84.5
2022-09-05T02:02:31.488Z,84.5
2022-09-05T02:03:36.770Z,84.5
2022-09-05T02:04:43.059Z,84.5
2022-09-05T02:05:49.318Z,84.5
2022-09-05T02:06:55.589Z,84
2022-09-05T02:08:00.883Z,84.5
2022-09-05T02:09:06.171Z,84
2022-09-05T02:10:12.453Z,84
2022-09-05T02:11:18.735Z,84
2022-09-05T02:12:24.988Z,84
2022-09-05T02:13:31.265Z,84.5
2022-09-05T02:14:36.563Z,84.5
2022-09-05T02:15:41.847Z,84.5
2022-09-05T02:16:48.161Z,84
2022-09-05T02:17:54.412Z,84
2022-09-05T02:19:00.704Z,84
2022-09-05T02:20:06.949Z,83.5
2022-09-05T02:21:13.213Z,84
2022-09-05T02:22:19.510Z,84
2022-09-05T02:23:25.759Z,84.5
2022-09-05T02:24:32.023Z,84
2022-09-05T02:25:38.308Z,85
2022-09-05T02:26:44.569Z,85
2022-09-05T02:27:50.849Z,85
2022-09-05T02:28:57.111Z,85
2022-09-05T02:30:02.399Z,85.5
2022-09-05T02:31:08.675Z,85.5
2022-09-05T02:32:15.000Z,85.5
2022-09-05T02:33:21.220Z,86
2022-09-05T02:34:27.499Z,85.5
2022-09-05T02:35:33.761Z,85.5
2022-09-05T02:36:40.040Z,85.5
2022-09-05T02:37:45.352Z,86
2022-09-05T02:38:50.620Z,85.5
2022-09-05T02:39:56.895Z,85.5
2022-09-05T02:41:02.198Z,86
2022-09-05T02:42:07.481Z,85.5
2022-09-05T02:43:13.751Z,85.5
2022-09-05T02:44:20.020Z,85.5
2022-09-05T02:45:26.325Z,85.5
2022-09-05T02:46:32.564Z,85
2022-09-05T02:47:38.846Z,85
2022-09-05T02:48:45.136Z,85
2022-09-05T02:49:51.386Z,85
2022-09-05T02:50:57.657Z,85
2022-09-05T02:52:03.935Z,84.5
2022-09-05T02:53:10.201Z,84.5
2022-09-05T02:54:16.500Z,84.5
2022-09-05T02:55:22.756Z,84.5
2022-09-05T02:56:28.076Z,84.5
2022-09-05T02:57:34.359Z,85
2022-09-05T02:58:40.578Z,85
2022-09-05T02:59:46.862Z,85
2022-09-05T03:00:53.165Z,85
2022-09-05T03:01:59.401Z,85
2022-09-05T03:03:05.701Z,85
2022-09-05T03:04:10.991Z,85
2022-09-05T03:05:16.265Z,84.5
2022-09-05T03:06:22.521Z,84.5
2022-09-05T03:07:28.800Z,84.5
2022-09-05T03:08:35.069Z,85
2022-09-05T03:09:41.355Z,84.5
2022-09-05T03:10:47.617Z,84.5
2022-09-05T03:11:53.887Z,84.5
2022-09-05T03:13:00.207Z,85
2022-09-05T03:14:06.425Z,84.5
2022-09-05T03:15:12.703Z,84.5
2022-09-05T03:16:18.972Z,84.5
2022-09-05T03:17:25.249Z,84.5
2022-09-05T03:18:31.532Z,84.5
2022-09-05T03:19:36.801Z,84.5
2022-09-05T03:20:43.073Z,84.5
2022-09-05T03:21:49.374Z,84.5
2022-09-05T03:22:55.620Z,84.5
2022-09-05T03:24:01.898Z,85
2022-09-05T03:25:08.177Z,85
2022-09-05T03:26:14.437Z,85.5
2022-09-05T03:27:19.730Z,85.5
2022-09-05T03:28:25.026Z,86
2022-09-05T03:29:30.326Z,86
2022-09-05T03:30:35.609Z,85.5
2022-09-05T03:31:40.916Z,86
2022-09-05T03:32:46.198Z,85.5
2022-09-05T03:33:52.468Z,86
2022-09-05T03:34:58.736Z,85.5
2022-09-05T03:36:05.034Z,85.5
2022-09-05T03:37:11.283Z,85.5
2022-09-05T03:38:17.591Z,85.5
2022-09-05T03:39:23.857Z,85.5
2022-09-05T03:40:30.095Z,85.5
2022-09-05T03:41:36.377Z,85.5
2022-09-05T03:42:42.639Z,85.5
2022-09-05T03:43:48.967Z,85.5
2022-09-05T03:44:55.184Z,85
2022-09-05T03:46:01.462Z,85
2022-09-05T03:47:06.762Z,85
2022-09-05T03:48:13.020Z,85
2022-09-05T03:49:19.306Z,84.5
2022-09-05T03:50:25.561Z,84.5
2022-09-05T03:51:31.834Z,84.5
2022-09-05T03:52:38.124Z,85
2022-09-05T03:53:44.383Z,85.5
2022-09-05T03:54:49.679Z,85.5
2022-09-05T03:55:54.968Z,85
2022-09-05T03:57:00.284Z,85
2022-09-05T03:58:05.554Z,84.5
2022-09-05T03:59:11.820Z,84.5
2022-09-05T04:00:18.094Z,84.5
2022-09-05T04:01:24.381Z,84.5
2022-09-05T04:02:30.639Z,84.5
2022-09-05T04:03:36.913Z,84.5
2022-09-05T04:04:43.186Z,84.5
2022-09-05T04:05:49.461Z,84.5
2022-09-05T04:06:55.730Z,84.5
2022-09-05T04:08:02.012Z,85
2022-09-05T04:09:08.276Z,84.5
2022-09-05T04:10:14.574Z,85
2022-09-05T04:11:20.823Z,85
2022-09-05T04:12:26.103Z,85.5
2022-09-05T04:13:32.376Z,85.5
2022-09-05T04:14:38.648Z,85.5
2022-09-05T04:15:44.927Z,85.5
2022-09-05T04:16:51.208Z,86
2022-09-05T04:17:57.465Z,86
2022-09-05T04:19:03.737Z,86.5
2022-09-05T04:20:09.047Z,86
2022-09-05T04:21:14.333Z,86
2022-09-05T04:22:19.632Z,86
2022-09-05T04:23:24.908Z,86.5
2022-09-05T04:24:31.181Z,86.5
2022-09-05T04:25:37.457Z,86.5
2022-09-05T04:26:43.733Z,86.5
2022-09-05T04:27:50.028Z,86.5
2022-09-05T04:28:56.295Z,87
2022-09-05T04:30:02.545Z,87
2022-09-05T04:31:08.822Z,86.5
2022-09-05T04:32:15.088Z,86.5
2022-09-05T04:33:21.365Z,86.5
2022-09-05T04:34:27.630Z,86.5
2022-09-05T04:35:33.927Z,86.5
2022-09-05T04:36:40.202Z,86.5
2022-09-05T04:37:45.465Z,86.5
2022-09-05T04:38:51.748Z,86.5
2022-09-05T04:39:58.006Z,86.5
2022-09-05T04:41:04.307Z,86.5
2022-09-05T04:42:10.578Z,86.5
2022-09-05T04:43:16.841Z,86.5
2022-09-05T04:44:23.098Z,86.5
2022-09-05T04:45:28.451Z,86
2022-09-05T04:46:33.727Z,86.5
2022-09-05T04:47:39.014Z,86.5
2022-09-05T04:48:44.276Z,86.5
2022-09-05T04:49:50.553Z,86
2022-09-05T04:50:56.855Z,86.5
2022-09-05T04:52:03.091Z,86.5
2022-09-05T04:53:09.358Z,86.5
2022-09-05T04:54:15.671Z,86.5
2022-09-05T04:55:21.906Z,86.5
2022-09-05T04:56:28.207Z,86.5
2022-09-05T04:57:34.450Z,86.5
2022-09-05T04:58:40.718Z,86.5
2022-09-05T04:59:46.994Z,86.5
2022-09-05T05:00:53.285Z,86.5
2022-09-05T05:01:59.599Z,86.5
2022-09-05T05:03:04.829Z,86.5
2022-09-05T05:04:11.107Z,86.5
2022-09-05T05:05:17.367Z,86.5
2022-09-05T05:06:23.685Z,86
2022-09-05T05:07:29.911Z,86
2022-09-05T05:08:36.189Z,86.5
2022-09-05T05:09:42.460Z,86
2022-09-05T05:10:48.730Z,86
2022-09-05T05:11:55.003Z,86
2022-09-05T05:13:01.273Z,86
2022-09-05T05:14:07.539Z,86
2022-09-05T05:15:13.814Z,86
2022-09-05T05:16:20.084Z,86
2022-09-05T05:17:25.372Z,86
2022-09-05T05:18:31.646Z,85.5
2022-09-05T05:19:37.930Z,86
2022-09-05T05:20:44.200Z,86
2022-09-05T05:21:49.489Z,85.5
2022-09-05T05:22:54.778Z,85.5
2022-09-05T05:24:01.050Z,86
2022-09-05T05:25:07.324Z,85.5
2022-09-05T05:26:12.642Z,85.5
2022-09-05T05:27:17.907Z,85.5
2022-09-05T05:28:24.188Z,85.5
2022-09-05T05:29:30.451Z,85.5
2022-09-05T05:30:35.746Z,85
2022-09-05T05:31:42.036Z,85
2022-09-05T05:32:48.296Z,85.5
2022-09-05T05:33:54.559Z,85.5
2022-09-05T05:35:00.830Z,85.5
2022-09-05T05:36:07.106Z,85.5
2022-09-05T05:37:13.375Z,85.5
2022-09-05T05:38:19.670Z,85.5
2022-09-05T05:39:25.919Z,85.5
2022-09-05T05:40:32.196Z,85.5
2022-09-05T05:41:38.470Z,85.5
2022-09-05T05:42:44.733Z,85.5
2022-09-05T05:43:51.017Z,85.5
2022-09-05T05:44:56.310Z,85.5
2022-09-05T05:46:02.561Z,85.5
2022-09-05T05:47:08.890Z,85.5
2022-09-05T05:48:15.110Z,85
2022-09-05T05:49:20.410Z,85.5
2022-09-05T05:50:25.707Z,86
2022-09-05T05:51:31.969Z,86
2022-09-05T05:52:38.241Z,85.5
2022-09-05T05:53:44.536Z,85.5
2022-09-05T05:54:50.785Z,85.5
2022-09-05T05:55:57.058Z,86
2022-09-05T05:57:02.354Z,86
2022-09-05T05:58:07.654Z,85.5
2022-09-05T05:59:13.917Z,86
2022-09-05T06:00:20.194Z,86
2022-09-05T06:01:26.498Z,86
2022-09-05T06:02:32.757Z,86
2022-09-05T06:03:39.007Z,85.5
2022-09-05T06:04:45.277Z,85.5
2022-09-05T06:05:51.546Z,85.5
2022-09-05T06:06:57.828Z,85.5
2022-09-05T06:08:04.095Z,86
2022-09-05T06:09:10.360Z,86
2022-09-05T06:10:16.633Z,86
2022-09-05T06:11:22.926Z,86
2022-09-05T06:12:28.195Z,86
2022-09-05T06:13:34.470Z,86
2022-09-05T06:14:40.740Z,86
2022-09-05T06:15:47.010Z,86
2022-09-05T06:16:53.280Z,86
2022-09-05T06:17:59.568Z,86.5
2022-09-05T06:19:05.834Z,86.5
2022-09-05T06:20:12.110Z,86
2022-09-05T06:21:17.396Z,86
2022-09-05T06:22:22.716Z,86
2022-09-05T06:23:28.960Z,85.5
2022-09-05T06:24:34.256Z,85.5
2022-09-05T06:25:39.548Z,86
2022-09-05T06:26:45.826Z,86
2022-09-05T06:27:52.083Z,85.5
2022-09-05T06:28:58.360Z,85.5
2022-09-05T06:30:04.626Z,85.5
2022-09-05T06:31:10.900Z,85.5
2022-09-05T06:32:17.170Z,85.5
2022-09-05T06:33:23.443Z,85.5
2022-09-05T06:34:29.723Z,84.5
2022-09-05T06:35:36.001Z,84.5
2022-09-05T06:36:42.264Z,84.5
2022-09-05T06:37:48.531Z,84
2022-09-05T06:38:54.804Z,84
2022-09-05T06:40:00.107Z,83.5
2022-09-05T06:41:06.366Z,83.5
2022-09-05T06:42:12.638Z,83.5
2022-09-05T06:43:18.939Z,83.5
2022-09-05T06:44:25.232Z,84
2022-09-05T06:45:31.451Z,84.5
2022-09-05T06:46:37.731Z,84
2022-09-05T06:47:43.042Z,84
2022-09-05T06:48:48.311Z,84
2022-09-05T06:49:53.625Z,83
2022-09-05T06:50:58.901Z,83.5
2022-09-05T06:52:05.244Z,84
2022-09-05T06:53:11.448Z,83
2022-09-05T06:54:17.713Z,83.5
2022-09-05T06:55:23.988Z,84
2022-09-05T06:56:30.256Z,83.5
2022-09-05T06:57:36.529Z,83.5
2022-09-05T06:58:42.801Z,83.5
2022-09-05T06:59:49.083Z,84
2022-09-05T07:00:55.346Z,83.5
2022-09-05T07:02:01.620Z,83.5
2022-09-05T07:03:07.895Z,84.5
2022-09-05T07:04:14.204Z,84
2022-09-05T07:05:19.470Z,84
2022-09-05T07:06:25.721Z,84.5
2022-09-05T07:07:32.028Z,85
2022-09-05T07:08:38.326Z,84
2022-09-05T07:09:44.603Z,84.5
2022-09-05T07:10:50.821Z,85.5
2022-09-05T07:11:57.087Z,84.5
2022-09-05T07:13:02.385Z,84
2022-09-05T07:14:07.668Z,83
2022-09-05T07:16:18.258Z,82.5
2022-09-05T07:17:24.527Z,82
2022-09-05T07:18:30.801Z,81.5
2022-09-05T07:19:37.078Z,81.5
2022-09-05T07:20:43.343Z,82
2022-09-05T07:21:49.634Z,80.5
2022-09-05T07:22:55.939Z,82
2022-09-05T07:24:02.162Z,82
2022-09-05T07:25:08.500Z,82
2022-09-05T07:26:14.775Z,81.5
2022-09-05T07:27:20.977Z,82.5
2022-09-05T07:28:27.246Z,82.5
2022-09-05T07:29:33.574Z,81
2022-09-05T07:30:38.805Z,81
2022-09-05T07:31:45.085Z,81.5
2022-09-05T07:32:51.353Z,81
2022-09-05T07:33:57.626Z,80.5
2022-09-05T07:35:03.899Z,81
2022-09-05T07:36:10.167Z,81
2022-09-05T07:37:16.445Z,81
2022-09-05T07:38:21.741Z,82
2022-09-05T07:39:27.028Z,82
2022-09-05T07:40:32.336Z,80.5
2022-09-05T07:41:37.634Z,80
2022-09-05T07:42:43.889Z,79
2022-09-05T07:43:50.160Z,80
2022-09-05T07:44:56.440Z,81
2022-09-05T07:46:02.702Z,80.5
2022-09-05T07:47:08.978Z,80
2022-09-05T07:48:15.246Z,80.5
2022-09-05T07:49:21.531Z,80
2022-09-05T07:50:27.795Z,79.5
2022-09-05T07:51:34.070Z,82
2022-09-05T07:52:40.339Z,80
2022-09-05T07:53:46.637Z,80.5
2022-09-05T07:54:52.889Z,80.5
2022-09-05T07:55:58.171Z,80
2022-09-05T07:57:04.443Z,80
2022-09-05T07:58:10.744Z,80.5
2022-09-05T07:59:16.989Z,81
2022-09-05T08:00:23.289Z,80
2022-09-05T08:01:29.528Z,80
2022-09-05T08:02:35.805Z,81
2022-09-05T08:03:41.098Z,79.5
2022-09-05T08:04:46.402Z,79
2022-09-05T08:05:51.685Z,79.5
2022-09-05T08:06:56.975Z,80
2022-09-05T08:08:03.267Z,78.5
2022-09-05T08:09:09.514Z,78.5
2022-09-05T08:10:15.836Z,80
2022-09-05T08:11:22.070Z,80
2022-09-05T08:12:28.373Z,80.5
2022-09-05T08:13:34.612Z,79
2022-09-05T08:14:40.891Z,79
2022-09-05T08:15:47.174Z,79.5
2022-09-05T08:16:53.421Z,78.5
2022-09-05T08:17:59.695Z,78
2022-09-05T08:19:05.979Z,79
2022-09-05T08:20:12.237Z,78
2022-09-05T08:21:17.537Z,78
2022-09-05T08:22:23.798Z,78
2022-09-05T08:23:30.068Z,78
2022-09-05T08:24:36.351Z,77
2022-09-05T08:25:42.615Z,78.5
2022-09-05T08:26:48.888Z,77.5
2022-09-05T08:27:55.158Z,77
2022-09-05T08:29:00.461Z,77.5
2022-09-05T08:30:05.755Z,78
2022-09-05T08:31:12.039Z,78
2022-09-05T08:32:18.290Z,77
2022-09-05T08:33:23.617Z,77.5
2022-09-05T08:34:28.878Z,77
2022-09-05T08:35:35.151Z,76.5
2022-09-05T08:36:41.420Z,77
2022-09-05T08:37:47.694Z,76.5
2022-09-05T08:38:53.974Z,76.5
2022-09-05T08:40:00.241Z,77
2022-09-05T08:41:06.509Z,77.5
2022-09-05T08:42:12.784Z,78
2022-09-05T08:43:19.056Z,76.5
2022-09-05T08:44:25.327Z,78.5
2022-09-05T08:45:31.598Z,77.5
2022-09-05T08:46:37.870Z,77
2022-09-05T08:47:44.147Z,77.5
2022-09-05T08:48:49.451Z,76.5
2022-09-05T08:49:55.704Z,76.5
2022-09-05T08:51:01.971Z,76.5
2022-09-05T08:52:08.250Z,75.5
2022-09-05T08:53:14.523Z,76
2022-09-05T08:54:20.844Z,76.5
2022-09-05T08:55:27.065Z,79
2022-09-05T08:56:32.379Z,75.5
2022-09-05T08:57:37.653Z,75.5
2022-09-05T08:58:42.956Z,77.5
2022-09-05T08:59:48.310Z,77.5
2022-09-05T09:00:54.512Z,76.5
2022-09-05T09:02:00.820Z,76.5
2022-09-05T09:03:07.129Z,76.5
2022-09-05T09:04:13.374Z,76
2022-09-05T09:05:19.657Z,75.5
2022-09-05T09:06:25.863Z,74
2022-09-05T09:07:32.144Z,74
2022-09-05T09:08:38.483Z,75
2022-09-05T09:09:44.722Z,31.5
2022-09-05T09:09:44.727Z,32
2022-09-05T09:09:44.733Z,32
2022-09-05T09:09:44.757Z,32.5
2022-09-05T09:09:44.761Z,32.5
2022-09-05T09:09:44.765Z,33
2022-09-05T09:09:44.769Z,33
2022-09-05T09:09:44.773Z,32.5
2022-09-05T09:09:44.795Z,32.5
2022-09-05T09:09:44.800Z,32.5
2022-09-05T09:09:44.815Z,33
2022-09-05T09:09:44.820Z,33
2022-09-05T09:09:44.824Z,34
2022-09-05T09:09:44.846Z,33
2022-09-05T09:09:44.855Z,33.5
2022-09-05T09:09:44.859Z,33
2022-09-05T09:09:44.862Z,34
2022-09-05T09:09:44.873Z,34
2022-09-05T09:09:44.876Z,34.5
2022-09-05T09:09:44.880Z,34
2022-09-05T09:09:44.883Z,34
2022-09-05T09:09:44.888Z,33.5
2022-09-05T09:09:44.903Z,34.5
2022-09-05T09:09:44.920Z,34.5
2022-09-05T09:09:44.923Z,34.5
2022-09-05T09:09:44.931Z,35
2022-09-05T09:09:44.935Z,34.5
2022-09-05T09:09:44.937Z,34.5
2022-09-05T09:09:44.957Z,35
2022-09-05T09:09:44.960Z,37
2022-09-05T09:09:44.971Z,36
2022-09-05T09:09:44.974Z,36
2022-09-05T09:09:44.980Z,35
2022-09-05T09:09:44.984Z,45
2022-09-05T09:09:44.989Z,82.5
2022-09-05T09:09:44.991Z,78
2022-09-05T09:09:44.996Z,37
2022-09-05T09:09:45.000Z,36
2022-09-05T09:09:45.004Z,36
2022-09-05T09:09:45.007Z,36
2022-09-05T09:09:45.009Z,97.5
2022-09-05T09:09:45.012Z,35.5
2022-09-05T09:09:45.018Z,36
2022-09-05T09:09:45.020Z,36
2022-09-05T09:10:50.954Z,78
2022-09-05T09:11:56.252Z,75.5
2022-09-05T09:13:02.594Z,76
2022-09-05T09:14:08.800Z,77
2022-09-05T09:15:15.070Z,75.5
2022-09-05T09:16:21.339Z,74.5
2022-09-05T09:17:27.610Z,74.5
2022-09-05T09:18:33.888Z,74.5
2022-09-05T09:19:40.161Z,76.5
2022-09-05T09:20:46.430Z,73.5
2022-09-05T09:21:51.732Z,75
2022-09-05T09:22:57.014Z,74
2022-09-05T09:24:02.316Z,74
2022-09-05T09:25:07.612Z,73.5
2022-09-05T09:26:13.881Z,74.5
2022-09-05T09:27:20.167Z,74
2022-09-05T09:28:26.454Z,72.5
2022-09-05T09:29:32.696Z,73.5
2022-09-05T09:30:38.961Z,71
2022-09-05T09:31:45.249Z,71
2022-09-05T09:32:51.505Z,71
2022-09-05T09:33:57.784Z,70.5
2022-09-05T09:35:04.052Z,74.5
2022-09-05T09:36:10.379Z,72.5
2022-09-05T09:37:16.603Z,72
2022-09-05T09:38:22.864Z,71.5
2022-09-05T09:39:28.152Z,71
2022-09-05T09:40:34.426Z,71.5
2022-09-05T09:41:40.703Z,71
2022-09-05T09:42:46.997Z,70
2022-09-05T09:43:53.249Z,70
2022-09-05T09:44:59.522Z,68.5
2022-09-05T09:46:05.793Z,69
2022-09-05T09:47:11.093Z,68
2022-09-05T09:48:16.391Z,69.5
2022-09-05T09:49:21.684Z,67.5
2022-09-05T09:50:26.960Z,66.5
2022-09-05T09:51:33.236Z,66
2022-09-05T09:52:39.513Z,65.5
2022-09-05T09:53:45.780Z,65.5
2022-09-05T09:54:52.049Z,65
2022-09-05T09:55:58.332Z,64.5
2022-09-05T09:57:04.601Z,64
2022-09-05T09:58:10.887Z,64.5
2022-09-05T09:59:17.166Z,62.5
2022-09-05T10:00:23.416Z,63
2022-09-05T10:01:29.693Z,62.5
2022-09-05T10:02:35.963Z,62
2022-09-05T10:03:42.248Z,61.5
2022-09-05T10:04:47.528Z,61
2022-09-05T10:05:53.799Z,61
2022-09-05T10:07:00.069Z,60
2022-09-05T10:08:06.341Z,61
2022-09-05T10:09:12.651Z,61.5
2022-09-05T10:10:18.888Z,61
2022-09-05T10:11:25.209Z,59
2022-09-05T10:12:31.439Z,61.5
2022-09-05T10:13:37.701Z,61.5
2022-09-05T10:14:43.984Z,59.5
2022-09-05T10:15:50.248Z,60.5
2022-09-05T10:16:56.521Z,61
2022-09-05T10:18:02.797Z,58.5
2022-09-05T10:19:08.083Z,62.5
2022-09-05T10:20:14.357Z,59
2022-09-05T10:21:20.637Z,58.5
2022-09-05T10:22:26.906Z,58
2022-09-05T10:23:33.172Z,55
2022-09-05T10:24:39.449Z,54.5
2022-09-05T10:26:51.990Z,55
2022-09-05T10:27:58.262Z,57.5
2022-09-05T10:29:04.530Z,56
2022-09-05T10:30:10.831Z,57.5
2022-09-05T10:31:17.079Z,55
2022-09-05T10:32:23.352Z,52.5
2022-09-05T10:33:28.649Z,54
2022-09-05T10:34:34.918Z,57
2022-09-05T10:35:41.219Z,57.5
2022-09-05T10:36:47.463Z,55.5
2022-09-05T10:37:53.738Z,52.5
2022-09-05T10:39:00.004Z,53
2022-09-05T10:40:06.274Z,52
2022-09-05T10:41:12.565Z,54
2022-09-05T10:42:18.889Z,55.5
2022-09-05T10:43:25.101Z,56
2022-09-05T10:44:31.367Z,58
2022-09-05T10:45:37.642Z,56.5
2022-09-05T10:46:43.922Z,56
2022-09-05T10:47:49.201Z,58
2022-09-05T10:48:55.472Z,54.5
2022-09-05T10:50:01.748Z,53.5
2022-09-05T10:51:08.023Z,55.5
2022-09-05T10:52:14.291Z,54.5
2022-09-05T10:53:19.642Z,55
2022-09-05T10:54:24.884Z,54.5
2022-09-05T10:55:31.168Z,55
2022-09-05T10:56:36.463Z,57.5
2022-09-05T10:57:41.743Z,56
2022-09-05T10:58:48.016Z,54.5
2022-09-05T10:59:54.282Z,55
2022-09-05T11:01:00.552Z,57.5
2022-09-05T11:02:06.820Z,55
2022-09-05T11:03:13.099Z,52.5
2022-09-05T11:04:19.373Z,56
2022-09-05T11:05:25.634Z,55.5
2022-09-05T11:06:31.920Z,56
2022-09-05T11:07:38.189Z,55.5
2022-09-05T11:08:44.466Z,54.5
2022-09-05T11:09:50.734Z,52
2022-09-05T11:10:57.053Z,52
2022-09-05T11:12:02.298Z,53
2022-09-05T11:13:08.570Z,58
2022-09-05T11:14:14.828Z,54.5
2022-09-05T11:15:21.116Z,56.5
2022-09-05T11:16:27.371Z,56.5
2022-09-05T11:17:33.657Z,56
2022-09-05T11:18:39.916Z,56.5
2022-09-05T11:19:45.221Z,57
2022-09-05T11:20:50.503Z,53.5
2022-09-05T11:21:55.811Z,56.5
2022-09-05T11:23:01.092Z,54
2022-09-05T11:24:07.374Z,55
2022-09-05T11:25:13.634Z,55.5
2022-09-05T11:26:19.937Z,56.5
2022-09-05T11:27:26.235Z,56.5
2022-09-05T11:28:32.451Z,53.5
2022-09-05T11:29:38.727Z,56.5
2022-09-05T11:30:44.998Z,51
2022-09-05T11:31:51.268Z,53
2022-09-05T11:32:57.538Z,51
2022-09-05T11:34:03.815Z,53
2022-09-05T11:35:10.085Z,53
2022-09-05T11:36:16.425Z,55
2022-09-05T11:37:21.641Z,53
2022-09-05T11:38:27.913Z,53
2022-09-05T11:39:34.196Z,54
2022-09-05T11:40:40.466Z,51
2022-09-05T11:41:46.733Z,52.5
2022-09-05T11:42:53.004Z,56
2022-09-05T11:43:59.278Z,53.5
2022-09-05T11:45:04.578Z,52
2022-09-05T11:46:09.868Z,52
2022-09-05T11:47:16.140Z,53.5
2022-09-05T11:48:22.414Z,54.5
2022-09-05T11:49:28.696Z,53
2022-09-05T11:50:34.953Z,55
2022-09-05T11:51:41.225Z,55.5
2022-09-05T11:52:47.509Z,52.5
2022-09-05T11:53:53.768Z,53
2022-09-05T11:55:00.087Z,49.5
2022-09-05T11:56:05.343Z,53
2022-09-05T11:57:10.648Z,52
2022-09-05T11:58:16.973Z,50
2022-09-05T11:59:23.265Z,52.5
2022-09-05T12:00:29.627Z,51
2022-09-05T12:01:35.775Z,53
2022-09-05T12:02:42.072Z,51
2022-09-05T12:03:48.315Z,53.5
2022-09-05T12:04:54.533Z,49.5
2022-09-05T12:06:00.867Z,49.5
2022-09-05T12:07:07.124Z,50
2022-09-05T12:08:13.438Z,50
2022-09-05T12:09:19.689Z,49
2022-09-05T12:10:25.934Z,49.5
2022-09-05T12:11:31.195Z,48
2022-09-05T12:12:37.515Z,51.5
2022-09-05T12:13:43.803Z,49.5
2022-09-05T12:14:49.997Z,51.5
2022-09-05T12:15:56.358Z,49
2022-09-05T12:17:02.634Z,49.5
2022-09-05T12:18:08.889Z,48.5
2022-09-05T12:19:14.174Z,51.5
2022-09-05T12:20:19.393Z,47
2022-09-05T12:21:24.716Z,46.5
2022-09-05T12:22:30.033Z,47.5
2022-09-05T12:23:36.277Z,47.5
2022-09-05T12:24:42.532Z,47.5
2022-09-05T12:25:48.873Z,49.5
2022-09-05T12:26:55.089Z,50.5
2022-09-05T12:28:01.407Z,49.5
2022-09-05T12:29:07.613Z,47
2022-09-05T12:30:13.888Z,48.5
2022-09-05T12:31:20.154Z,47.5
2022-09-05T12:32:26.431Z,51
2022-09-05T12:33:32.795Z,49
2022-09-05T12:34:38.985Z,55
2022-09-05T12:35:45.245Z,46
2022-09-05T12:36:50.533Z,47
2022-09-05T12:37:56.806Z,50
2022-09-05T12:39:03.119Z,44
2022-09-05T12:40:09.353Z,42.5
2022-09-05T12:41:15.631Z,42.5
2022-09-05T12:42:21.902Z,43
2022-09-05T12:43:28.164Z,42.5
2022-09-05T12:44:33.460Z,46
2022-09-05T12:45:38.749Z,46.5
2022-09-05T12:46:44.062Z,46
2022-09-05T12:47:49.340Z,46
2022-09-05T12:48:55.624Z,48.5
2022-09-05T12:50:01.884Z,46
2022-09-05T12:51:08.150Z,48.5
2022-09-05T12:52:14.431Z,50
2022-09-05T12:53:19.715Z,49.5
2022-09-05T12:54:25.992Z,46
2022-09-05T12:55:32.268Z,49
2022-09-05T12:56:38.539Z,46.5
2022-09-05T12:57:44.810Z,47.5
2022-09-05T12:58:51.080Z,48
2022-09-05T12:59:57.354Z,47
2022-09-05T13:01:03.621Z,45
2022-09-05T13:02:09.892Z,44.5
2022-09-05T13:03:16.176Z,46
2022-09-05T13:04:22.440Z,49.5
2022-09-05T13:05:28.710Z,45
2022-09-05T13:06:34.982Z,45.5
2022-09-05T13:07:40.270Z,45
2022-09-05T13:08:46.572Z,44.5
2022-09-05T13:09:51.850Z,44.5
2022-09-05T13:10:57.144Z,44.5
2022-09-05T13:12:02.439Z,46
2022-09-05T13:13:07.717Z,41
2022-09-05T13:14:13.988Z,42
2022-09-05T13:15:20.266Z,44.5
2022-09-05T13:16:26.539Z,45.5
2022-09-05T13:17:32.804Z,44
2022-09-05T13:18:39.078Z,43.5
2022-09-05T13:19:45.347Z,44.5
2022-09-05T13:20:51.623Z,45
2022-09-05T13:21:57.889Z,48
2022-09-05T13:23:04.162Z,45
2022-09-05T13:24:10.436Z,43.5
2022-09-05T13:25:16.704Z,45.5
2022-09-05T13:26:22.986Z,43.5
2022-09-05T13:27:28.277Z,43.5
2022-09-05T13:28:34.553Z,39.5
2022-09-05T13:29:40.810Z,39
2022-09-05T13:30:47.085Z,38.5
2022-09-05T13:31:53.359Z,41.5
2022-09-05T13:32:59.627Z,41.5
2022-09-05T13:34:05.902Z,43
2022-09-05T13:35:11.200Z,42.5
2022-09-05T13:36:16.483Z,43
2022-09-05T13:37:22.763Z,42
2022-09-05T13:38:29.036Z,42.5
2022-09-05T13:39:35.308Z,41
2022-09-05T13:40:41.575Z,42.5
2022-09-05T13:41:47.849Z,41.5
2022-09-05T13:42:54.145Z,40.5
2022-09-05T13:44:00.400Z,40
2022-09-05T13:45:06.659Z,38.5
2022-09-05T13:46:12.935Z,38.5
2022-09-05T13:47:19.205Z,39.5
2022-09-05T13:48:25.479Z,39
2022-09-05T13:49:31.746Z,40
2022-09-05T13:50:37.037Z,40
2022-09-05T13:51:43.332Z,40.5
2022-09-05T13:52:49.587Z,39.5
2022-09-05T13:53:55.852Z,39.5
2022-09-05T13:55:02.120Z,39
2022-09-05T13:56:08.392Z,40
2022-09-05T13:57:14.662Z,39.5
2022-09-05T13:58:19.967Z,40
2022-09-05T13:59:25.247Z,41.5
2022-09-05T14:00:30.610Z,39
2022-09-05T14:01:35.853Z,39
2022-09-05T14:02:42.120Z,38.5
2022-09-05T14:03:48.386Z,38.5
2022-09-05T14:04:53.684Z,40
2022-09-05T14:05:58.974Z,42
2022-09-05T14:07:05.245Z,42.5
2022-09-05T14:08:11.522Z,42
2022-09-05T14:09:17.787Z,43
2022-09-05T14:10:24.054Z,43
2022-09-05T14:11:30.332Z,42
2022-09-05T14:12:36.598Z,41
2022-09-05T14:13:42.870Z,41
2022-09-05T14:14:49.150Z,40
2022-09-05T14:15:55.422Z,40
2022-09-05T14:17:01.704Z,40.5
2022-09-05T14:18:07.958Z,41.5
2022-09-05T14:19:14.232Z,42.5
2022-09-05T14:20:19.522Z,42
2022-09-05T14:21:25.803Z,42.5
2022-09-05T14:22:32.061Z,42